Time;durP1;ratioP1;P1;durP2;ratioP2;P2;SDS_P1;SDS_P2;PMS_P1;PMS_P2;Temp;Humidity;BMP_temperature;BMP_pressure;BME280_temperature;BME280_humidity;BME280_pressure;Samples;Min_cycle;Max_cycle;Signal;HPM_P1;HPM_P2
2023/08/31 00:01:09;;;;;;;;;;;;;;;;;;4985392;28;19980;-92
2023/08/31 00:03:35;;;;;;;;;;;;;;;;;;4980576;28;19918;-91
2023/08/31 00:06:01;;;;;;;;;;;;;;;;;;4987159;28;20369;-91
2023/08/31 00:08:27;;;;;;;;;;;;;;;;;;4982221;28;19940;-91
2023/08/31 00:10:53;;;;;;;;;;;;;;;;;;4983010;28;19913;-91
2023/08/31 00:13:19;;;;;;;;;;;;;;;;;;4987114;28;19965;-92
2023/08/31 00:15:55;;;;;;;;;;;;;;;;;;4989995;28;19964;-91
2023/08/31 00:18:21;;;;;;;;;;;;;;;;;;4990410;28;19917;-91
2023/08/31 00:20:47;;;;;;;;;;;;;;;;;;4990076;28;19983;-90
2023/08/31 00:23:13;;;;;;;;;;;;;;;;;;4990994;28;19918;-92
2023/08/31 00:25:39;;;;;;;;;;;;;;;;;;4990537;28;19960;-91
2023/08/31 00:28:11;;;;;;;;;;;;;;;;;;4980941;28;19917;-91
2023/08/31 00:30:37;;;;;;;;;;;;;;;;;;4982098;28;20349;-92
2023/08/31 00:33:04;;;;;;;;;;;;;;;;;;4972410;28;20013;-91
2023/08/31 00:35:30;;;;;;;;;;;;;;;;;;4968867;28;20659;-92
2023/08/31 00:37:58;;;;;;;;;;;;;;;;;;4967014;28;19909;-91
2023/08/31 00:40:24;;;;;;;;;;;;;;;;;;4962373;28;19918;-92
2023/08/31 00:42:50;;;;;;;;;;;;;;;;;;4970714;28;19926;-92
2023/08/31 00:45:16;;;;;;;;;;;;;;;;;;4981873;28;19924;-91
2023/08/31 00:47:42;;;;;;;;;;;;;;;;;;4967070;28;19918;-91
2023/08/31 00:50:11;;;;;;;;;;;;;;;;;;4983458;28;19925;-91
2023/08/31 00:52:38;;;;;;;;;;;;;;;;;;4969425;28;19960;-92
2023/08/31 00:55:05;;;;;;;;;;;;;;;;;;4983446;28;20357;-92
2023/08/31 00:57:31;;;;;;;;;;;;;;;;;;4971949;28;20109;-91
2023/08/31 01:00:06;;;;;;;;;;;;;;;;;;4971500;28;19910;-91
2023/08/31 01:02:32;;;;;;;;;;;;;;;;;;4967768;28;19914;-91
2023/08/31 01:04:58;;;;;;;;;;;;;;;;;;4964590;28;19914;-92
2023/08/31 01:07:24;;;;;;;;;;;;;;;;;;4971167;28;19909;-91
2023/08/31 01:09:50;;;;;;;;;;;;;;;;;;4967589;28;19910;-91
2023/08/31 01:12:16;;;;;;;;;;;;;;;;;;4964696;28;19910;-91
2023/08/31 01:14:45;;;;;;;;;;;;;;;;;;4966603;28;19914;-91
2023/08/31 01:17:11;;;;;;;;;;;;;;;;;;4964215;28;20125;-91
2023/08/31 01:19:38;;;;;;;;;;;;;;;;;;4965049;28;19918;-91
2023/08/31 01:22:04;;;;;;;;;;;;;;;;;;4968491;28;19925;-91
2023/08/31 01:24:30;;;;;;;;;;;;;;;;;;4968240;28;19910;-91
2023/08/31 01:26:56;;;;;;;;;;;;;;;;;;4975389;28;19948;-91
2023/08/31 01:29:22;;;;;;;;;;;;;;;;;;4988234;28;20262;-93
2023/08/31 01:31:48;;;;;;;;;;;;;;;;;;4985737;28;19948;-92
2023/08/31 01:34:14;;;;;;;;;;;;;;;;;;4991311;28;19909;-94
2023/08/31 01:36:40;;;;;;;;;;;;;;;;;;4989248;28;20301;-93
2023/08/31 01:39:06;;;;;;;;;;;;;;;;;;4988209;28;19929;-92
2023/08/31 01:41:32;;;;;;;;;;;;;;;;;;4995634;28;20328;-93
2023/08/31 01:43:58;;;;;;;;;;;;;;;;;;4987552;28;19913;-95
2023/08/31 01:46:24;;;;;;;;;;;;;;;;;;4987723;28;19917;-95
2023/08/31 01:48:50;;;;;;;;;;;;;;;;;;4986625;28;19922;-91
2023/08/31 01:51:17;;;;;;;;;;;;;;;;;;4987375;28;19917;-94
2023/08/31 01:53:44;;;;;;;;;;;;;;;;;;4993899;28;19967;-94
2023/08/31 01:56:10;;;;;;;;;;;;;;;;;;4992618;28;19913;-93
2023/08/31 01:58:42;;;;;;;;;;;;;;;;;;4994595;28;19944;-96
2023/08/31 02:01:09;;;;;;;;;;;;;;;;;;4998409;28;19928;-92
2023/08/31 02:03:35;;;;;;;;;;;;;;;;;;4993507;28;19932;-94
2023/08/31 02:06:00;;;;;;;;;;;;;;;;;;4988128;28;19909;-92
2023/08/31 02:08:26;;;;;;;;;;;;;;;;;;4989631;28;20385;-94
2023/08/31 02:10:54;;;;;;;;;;;;;;;;;;4987897;28;24087;-91
2023/08/31 02:13:20;;;;;;;;;;;;;;;;;;4986793;28;20350;-94
2023/08/31 02:15:46;;;;;;;;;;;;;;;;;;4988192;28;19924;-92
2023/08/31 02:18:12;;;;;;;;;;;;;;;;;;4986361;28;19916;-94
2023/08/31 02:20:37;;;;;;;;;;;;;;;;;;4987605;28;19932;-94
2023/08/31 02:23:03;;;;;;;;;;;;;;;;;;4990068;28;19989;-94
2023/08/31 02:25:32;;;;;;;;;;;;;;;;;;4990336;28;19909;-94
2023/08/31 02:28:05;;;;;;;;;;;;;;;;;;4992061;28;19929;-94
2023/08/31 02:30:31;;;;;;;;;;;;;;;;;;4988106;28;19917;-94
2023/08/31 02:32:57;;;;;;;;;;;;;;;;;;4995913;28;19916;-94
2023/08/31 02:35:23;;;;;;;;;;;;;;;;;;4988928;28;19909;-94
2023/08/31 02:37:49;;;;;;;;;;;;;;;;;;4990237;28;19913;-90
2023/08/31 02:40:15;;;;;;;;;;;;;;;;;;4989658;28;19909;-91
2023/08/31 02:42:42;;;;;;;;;;;;;;;;;;4987388;28;19925;-91
2023/08/31 02:45:16;;;;;;;;;;;;;;;;;;4984327;28;19976;-91
2023/08/31 02:47:42;;;;;;;;;;;;;;;;;;4993744;28;19917;-90
2023/08/31 02:50:08;;;;;;;;;;;;;;;;;;4988739;28;19924;-91
2023/08/31 02:52:34;;;;;;;;;;;;;;;;;;4990738;28;19932;-91
2023/08/31 02:55:00;;;;;;;;;;;;;;;;;;4989163;28;20407;-91
2023/08/31 02:57:26;;;;;;;;;;;;;;;;;;4988888;28;19976;-91
2023/08/31 02:59:52;;;;;;;;;;;;;;;;;;4988093;28;20004;-91
2023/08/31 03:02:18;;;;;;;;;;;;;;;;;;5000101;28;19913;-90
2023/08/31 03:04:44;;;;;;;;;;;;;;;;;;4989797;28;19917;-90
2023/08/31 03:07:13;;;;;;;;;;;;;;;;;;4983737;28;19921;-91
2023/08/31 03:09:39;;;;;;;;;;;;;;;;;;4982785;28;19909;-92
2023/08/31 03:12:05;;;;;;;;;;;;;;;;;;4986711;28;19914;-91
2023/08/31 03:14:31;;;;;;;;;;;;;;;;;;4984914;28;19936;-92
2023/08/31 03:16:57;;;;;;;;;;;;;;;;;;4984322;28;20305;-91
2023/08/31 03:19:23;;;;;;;;;;;;;;;;;;4987931;28;19906;-91
2023/08/31 03:21:49;;;;;;;;;;;;;;;;;;4989643;28;19921;-92
2023/08/31 03:24:15;;;;;;;;;;;;;;;;;;4984455;28;20393;-90
2023/08/31 03:26:41;;;;;;;;;;;;;;;;;;4982506;28;19963;-91
2023/08/31 03:29:07;;;;;;;;;;;;;;;;;;4987306;28;20063;-91
2023/08/31 03:31:33;;;;;;;;;;;;;;;;;;4983758;28;19956;-91
2023/08/31 03:33:59;;;;;;;;;;;;;;;;;;4985609;28;19917;-91
2023/08/31 03:36:25;;;;;;;;;;;;;;;;;;4987860;28;19936;-92
2023/08/31 03:38:51;;;;;;;;;;;;;;;;;;4990570;28;19925;-90
2023/08/31 03:41:17;;;;;;;;;;;;;;;;;;4985789;28;19917;-91
2023/08/31 03:43:46;;;;;;;;;;;;;;;;;;5003115;28;19953;-91
2023/08/31 03:46:12;;;;;;;;;;;;;;;;;;4992511;28;19960;-90
2023/08/31 03:48:38;;;;;;;;;;;;;;;;;;4987718;28;19948;-94
2023/08/31 03:51:04;;;;;;;;;;;;;;;;;;4995123;28;19946;-95
2023/08/31 03:53:30;;;;;;;;;;;;;;;;;;4994983;28;20353;-92
2023/08/31 03:55:56;;;;;;;;;;;;;;;;;;4996997;28;19913;-94
2023/08/31 03:58:22;;;;;;;;;;;;;;;;;;4997796;28;19917;-94
2023/08/31 04:00:48;;;;;;;;;;;;;;;;;;4995235;28;19913;-93
2023/08/31 04:03:14;;;;;;;;;;;;;;;;;;5001765;28;19909;-95
2023/08/31 04:05:40;;;;;;;;;;;;;;;;;;4993558;28;19932;-95
2023/08/31 04:08:06;;;;;;;;;;;;;;;;;;4991122;28;19928;-92
2023/08/31 04:10:32;;;;;;;;;;;;;;;;;;4995078;28;19940;-94
2023/08/31 04:12:58;;;;;;;;;;;;;;;;;;4994088;28;19972;-94
2023/08/31 04:15:24;;;;;;;;;;;;;;;;;;4990217;28;19909;-95
2023/08/31 04:17:50;;;;;;;;;;;;;;;;;;4994762;28;20024;-94
2023/08/31 04:20:19;;;;;;;;;;;;;;;;;;4998826;28;19913;-93
2023/08/31 04:22:45;;;;;;;;;;;;;;;;;;4996055;28;19913;-94
2023/08/31 04:25:11;;;;;;;;;;;;;;;;;;4993362;28;19917;-93
2023/08/31 04:27:39;;;;;;;;;;;;;;;;;;5009432;28;19914;-94
2023/08/31 04:30:12;;;;;;;;;;;;;;;;;;4991900;28;19935;-94
2023/08/31 04:32:38;;;;;;;;;;;;;;;;;;4995589;28;19928;-94
2023/08/31 04:35:17;;;;;;;;;;;;;;;;;;;;;
2023/08/31 04:37:44;;;;;;;;;;;;;;;;;;5006845;28;20574;-94
2023/08/31 04:40:12;;;;;;;;;;;;;;;;;;4993034;28;19913;-92
2023/08/31 04:42:38;;;;;;;;;;;;;;;;;;4989736;28;20074;-94
2023/08/31 04:45:05;;;;;;;;;;;;;;;;;;4992416;28;20162;-93
2023/08/31 04:47:31;;;;;;;;;;;;;;;;;;4984283;28;20417;-95
2023/08/31 04:50:06;;;;;;;;;;;;;;;;;;4991750;28;19980;-94
2023/08/31 04:52:32;;;;;;;;;;;;;;;;;;4996295;28;20365;-94
2023/08/31 04:54:58;;;;;;;;;;;;;;;;;;4989513;28;19973;-92
2023/08/31 04:57:25;;;;;;;;;;;;;;;;;;4990516;28;19909;-90
2023/08/31 04:59:51;;;;;;;;;;;;;;;;;;4985316;28;19913;-91
2023/08/31 05:02:18;;;;;;;;;;;;;;;;;;4999294;28;19913;-91
2023/08/31 05:04:44;;;;;;;;;;;;;;;;;;4990707;28;20255;-90
2023/08/31 05:07:10;;;;;;;;;;;;;;;;;;4987390;28;19924;-91
2023/08/31 05:09:39;;;;;;;;;;;;;;;;;;4989384;28;19919;-91
2023/08/31 05:12:04;;;;;;;;;;;;;;;;;;4987193;28;19917;-91
2023/08/31 05:14:30;;;;;;;;;;;;;;;;;;4992724;28;19910;-90
2023/08/31 05:16:56;;;;;;;;;;;;;;;;;;4989898;28;19989;-91
2023/08/31 05:19:22;;;;;;;;;;;;;;;;;;4985938;28;20443;-90
2023/08/31 05:21:48;;;;;;;;;;;;;;;;;;4987754;28;20019;-90
2023/08/31 05:24:14;;;;;;;;;;;;;;;;;;4993638;28;20004;-91
2023/08/31 05:26:40;;;;;;;;;;;;;;;;;;4992942;28;19913;-91
2023/08/31 05:29:06;;;;;;;;;;;;;;;;;;4994324;28;19921;-90
2023/08/31 05:31:32;;;;;;;;;;;;;;;;;;4990087;28;20416;-90
2023/08/31 05:34:01;;;;;;;;;;;;;;;;;;4991692;28;19917;-90
2023/08/31 05:36:27;;;;;;;;;;;;;;;;;;4989613;28;19936;-91
2023/08/31 05:38:53;;;;;;;;;;;;;;;;;;4989095;28;20317;-90
2023/08/31 05:41:20;;;;;;;;;;;;;;;;;;4992222;28;20468;-91
2023/08/31 05:43:46;;;;;;;;;;;;;;;;;;4986285;28;20472;-91
2023/08/31 05:46:12;;;;;;;;;;;;;;;;;;4989779;28;19940;-91
2023/08/31 05:48:38;;;;;;;;;;;;;;;;;;4988083;28;20024;-89
2023/08/31 05:51:05;;;;;;;;;;;;;;;;;;4985150;28;19920;-91
2023/08/31 05:53:30;;;;;;;;;;;;;;;;;;4984210;28;19913;-90
2023/08/31 05:56:03;;;;;;;;;;;;;;;;;;4987096;28;19956;-88
2023/08/31 05:58:29;;;;;;;;;;;;;;;;;;4984405;28;19913;-89
2023/08/31 06:00:55;;;;;;;;;;;;;;;;;;4988063;28;19932;-89
2023/08/31 06:03:24;;;;;;;;;;;;;;;;;;4985759;28;20731;-89
2023/08/31 06:05:50;;;;;;;;;;;;;;;;;;4979016;28;20270;-89
2023/08/31 06:08:16;;;;;;;;;;;;;;;;;;4986252;28;19919;-91
2023/08/31 06:10:42;;;;;;;;;;;;;;;;;;4989430;28;20016;-91
2023/08/31 06:13:08;;;;;;;;;;;;;;;;;;4986084;28;20012;-90
2023/08/31 06:15:37;;;;;;;;;;;;;;;;;;4986808;28;20475;-90
2023/08/31 06:18:04;;;;;;;;;;;;;;;;;;4985311;28;19961;-90
2023/08/31 06:20:30;;;;;;;;;;;;;;;;;;4982738;28;20500;-90
2023/08/31 06:22:56;;;;;;;;;;;;;;;;;;4983001;28;19917;-90
2023/08/31 06:25:22;;;;;;;;;;;;;;;;;;4979743;28;19918;-89
2023/08/31 06:27:48;;;;;;;;;;;;;;;;;;4978097;28;19992;-90
2023/08/31 06:30:18;;;;;;;;;;;;;;;;;;4984172;28;19925;-90
2023/08/31 06:32:44;;;;;;;;;;;;;;;;;;4980124;28;19940;-90
2023/08/31 06:35:11;;;;;;;;;;;;;;;;;;4996540;28;19909;-90
2023/08/31 06:37:37;;;;;;;;;;;;;;;;;;4979853;28;19918;-90
2023/08/31 06:40:03;;;;;;;;;;;;;;;;;;4982023;28;19913;-91
2023/08/31 06:42:29;;;;;;;;;;;;;;;;;;4978372;28;19971;-91
2023/08/31 06:44:56;;;;;;;;;;;;;;;;;;4982967;28;19909;-91
2023/08/31 06:47:26;;;;;;;;;;;;;;;;;;4978941;28;20024;-91
2023/08/31 06:49:52;;;;;;;;;;;;;;;;;;4977380;28;19923;-91
2023/08/31 06:52:21;;;;;;;;;;;;;;;;;;4981408;28;20849;-91
2023/08/31 06:54:47;;;;;;;;;;;;;;;;;;4980896;28;19979;-91
2023/08/31 06:57:14;;;;;;;;;;;;;;;;;;4973662;28;19925;-91
2023/08/31 06:59:40;;;;;;;;;;;;;;;;;;4976905;28;20760;-91
2023/08/31 07:02:06;;;;;;;;;;;;;;;;;;4979560;28;19957;-92
2023/08/31 07:04:32;;;;;;;;;;;;;;;;;;4978291;28;20351;-92
2023/08/31 07:06:58;;;;;;;;;;;;;;;;;;4991045;28;20016;-92
2023/08/31 07:09:24;;;;;;;;;;;;;;;;;;4974943;28;19918;-91
2023/08/31 07:11:50;;;;;;;;;;;;;;;;;;4995028;28;20004;-92
2023/08/31 07:14:16;;;;;;;;;;;;;;;;;;4975376;28;20055;-90
2023/08/31 07:16:50;;;;;;;;;;;;;;;;;;4980950;28;19929;-91
2023/08/31 07:19:16;;;;;;;;;;;;;;;;;;4986614;28;20210;-89
2023/08/31 07:21:41;;;;;;;;;;;;;;;;;;4987857;28;19964;-89
2023/08/31 07:24:08;;;;;;;;;;;;;;;;;;4989062;28;19963;-89
2023/08/31 07:26:34;;;;;;;;;;;;;;;;;;4994354;28;19956;-89
2023/08/31 07:34:31;;;;;;;;;;;;;;;;;;5004107;28;19933;-89
2023/08/31 07:36:57;;;;;;;;;;;;;;;;;;4994826;28;19913;-90
2023/08/31 07:39:23;;;;;;;;;;;;;;;;;;4995032;28;19931;-91
2023/08/31 07:41:49;;;;;;;;;;;;;;;;;;4990387;28;19921;-91
2023/08/31 07:47:00;;;;;;;;;;;;;;;;;;5001304;28;19919;-91
2023/08/31 07:49:25;;;;;;;;;;;;;;;;;;4994230;28;19913;-91
2023/08/31 07:51:51;;;;;;;;;;;;;;;;;;4993837;28;19913;-91
2023/08/31 07:59:34;;;;;;;;;;;;;;;;;;5018184;28;19979;-90
2023/08/31 08:02:00;;;;;;;;;;;;;;;;;;5032324;28;19959;-90
2023/08/31 08:04:27;;;;;;;;;;;;;;;;;;5009181;28;19917;-88
2023/08/31 08:06:54;;;;;;;;;;;;;;;;;;5009475;28;19909;-88
2023/08/31 08:09:20;;;;;;;;;;;;;;;;;;5024178;28;20359;-87
2023/08/31 08:11:45;;;;;;;;;;;;;;;;;;5022383;28;19916;-88
2023/08/31 08:14:11;;;;;;;;;;;;;;;;;;5021502;28;19909;-88
2023/08/31 08:16:37;;;;;;;;;;;;;;;;;;5025113;28;19913;-88
2023/08/31 08:19:03;;;;;;;;;;;;;;;;;;5025261;28;19917;-88
2023/08/31 08:21:29;;;;;;;;;;;;;;;;;;5021502;28;19975;-88
2023/08/31 08:23:55;;;;;;;;;;;;;;;;;;5023412;28;20133;-88
2023/08/31 08:26:21;;;;;;;;;;;;;;;;;;5036850;28;20387;-90
2023/08/31 08:28:47;;;;;;;;;;;;;;;;;;5016212;28;19909;-90
2023/08/31 08:31:13;;;;;;;;;;;;;;;;;;5008436;28;20377;-90
2023/08/31 08:33:40;;;;;;;;;;;;;;;;;;5022296;28;19913;-89
2023/08/31 08:36:05;;;;;;;;;;;;;;;;;;5011772;28;19967;-89
2023/08/31 08:38:31;;;;;;;;;;;;;;;;;;5018182;28;19913;-90
2023/08/31 08:40:57;;;;;;;;;;;;;;;;;;5022972;28;20423;-89
2023/08/31 08:43:23;;;;;;;;;;;;;;;;;;5013212;28;19917;-89
2023/08/31 08:45:49;;;;;;;;;;;;;;;;;;5020545;28;19940;-90
2023/08/31 08:48:15;;;;;;;;;;;;;;;;;;5031253;28;19971;-89
2023/08/31 08:50:41;;;;;;;;;;;;;;;;;;5013013;28;19913;-90
2023/08/31 08:53:07;;;;;;;;;;;;;;;;;;5018766;28;20028;-95
2023/08/31 08:55:33;;;;;;;;;;;;;;;;;;5013542;28;20368;-94
2023/08/31 08:58:03;;;;;;;;;;;;;;;;;;5008547;28;19921;-94
2023/08/31 09:00:29;;;;;;;;;;;;;;;;;;5004498;28;19959;-94
2023/08/31 09:02:55;;;;;;;;;;;;;;;;;;5001932;28;19960;-94
2023/08/31 09:05:21;;;;;;;;;;;;;;;;;;5009390;28;19963;-93
2023/08/31 09:07:47;;;;;;;;;;;;;;;;;;5002254;28;20395;-93
2023/08/31 09:10:13;;;;;;;;;;;;;;;;;;5005539;28;19909;-92
2023/08/31 09:12:39;;;;;;;;;;;;;;;;;;5000819;28;19972;-92
2023/08/31 09:15:05;;;;;;;;;;;;;;;;;;5003107;28;19917;-94
2023/08/31 09:17:31;;;;;;;;;;;;;;;;;;5001362;28;19913;-94
2023/08/31 09:19:57;;;;;;;;;;;;;;;;;;4994356;28;19956;-94
2023/08/31 09:22:23;;;;;;;;;;;;;;;;;;5004296;28;19917;-94
2023/08/31 09:24:49;;;;;;;;;;;;;;;;;;5002329;28;19919;-91
2023/08/31 09:27:15;;;;;;;;;;;;;;;;;;5005917;28;19909;-92
2023/08/31 09:29:40;;;;;;;;;;;;;;;;;;5002604;28;19924;-92
2023/08/31 09:32:06;;;;;;;;;;;;;;;;;;5001756;28;19929;-92
2023/08/31 09:34:32;;;;;;;;;;;;;;;;;;5000984;28;19920;-92
2023/08/31 09:36:58;;;;;;;;;;;;;;;;;;5007445;28;19984;-92
2023/08/31 09:39:24;;;;;;;;;;;;;;;;;;4993157;28;20020;-91
2023/08/31 09:41:50;;;;;;;;;;;;;;;;;;5002370;28;19920;-92
2023/08/31 09:44:17;;;;;;;;;;;;;;;;;;4999348;28;20143;-92
2023/08/31 09:46:43;;;;;;;;;;;;;;;;;;4998072;28;19913;-91
2023/08/31 09:49:08;;;;;;;;;;;;;;;;;;5001877;28;19968;-91
2023/08/31 09:51:34;;;;;;;;;;;;;;;;;;4996079;28;19917;-92
2023/08/31 09:54:01;;;;;;;;;;;;;;;;;;5002590;28;19909;-92
2023/08/31 09:56:27;;;;;;;;;;;;;;;;;;4999057;28;20096;-93
2023/08/31 09:58:53;;;;;;;;;;;;;;;;;;4999393;28;19917;-92
2023/08/31 10:01:19;;;;;;;;;;;;;;;;;;5000565;28;19917;-91
2023/08/31 10:03:44;;;;;;;;;;;;;;;;;;5001393;28;19920;-92
2023/08/31 10:06:10;;;;;;;;;;;;;;;;;;4999762;28;20520;-92
2023/08/31 10:08:37;;;;;;;;;;;;;;;;;;5000317;28;21241;-92
2023/08/31 10:11:03;;;;;;;;;;;;;;;;;;5005210;28;20408;-92
2023/08/31 10:13:31;;;;;;;;;;;;;;;;;;5004191;28;19917;-92
2023/08/31 10:15:57;;;;;;;;;;;;;;;;;;5007145;28;19925;-94
2023/08/31 10:18:23;;;;;;;;;;;;;;;;;;5006296;28;20487;-94
2023/08/31 10:20:49;;;;;;;;;;;;;;;;;;5010819;28;20364;-95
2023/08/31 10:23:15;;;;;;;;;;;;;;;;;;5012291;28;19924;-94
2023/08/31 10:25:42;;;;;;;;;;;;;;;;;;5011254;28;19913;-95
2023/08/31 10:28:11;;;;;;;;;;;;;;;;;;5010332;28;19913;-95
2023/08/31 10:30:36;;;;;;;;;;;;;;;;;;5009450;28;20423;-94
2023/08/31 10:33:03;;;;;;;;;;;;;;;;;;5011309;28;19945;-95
2023/08/31 10:35:29;;;;;;;;;;;;;;;;;;5011065;28;19914;-93
2023/08/31 10:37:59;;;;;;;;;;;;;;;;;;5023771;28;20022;-92
2023/08/31 10:40:25;;;;;;;;;;;;;;;;;;5010962;28;19910;-93
2023/08/31 10:42:51;;;;;;;;;;;;;;;;;;5012281;28;19996;-94
2023/08/31 10:45:17;;;;;;;;;;;;;;;;;;5010593;28;19916;-95
2023/08/31 10:47:43;;;;;;;;;;;;;;;;;;5010202;28;19909;-93
2023/08/31 10:50:09;;;;;;;;;;;;;;;;;;5018185;28;20092;-93
2023/08/31 10:52:35;;;;;;;;;;;;;;;;;;5006367;28;19933;-94
2023/08/31 10:55:01;;;;;;;;;;;;;;;;;;5005384;28;20413;-94
2023/08/31 10:57:27;;;;;;;;;;;;;;;;;;5004793;28;19914;-94
2023/08/31 10:59:53;;;;;;;;;;;;;;;;;;5005403;28;19917;-93
2023/08/31 11:02:18;;;;;;;;;;;;;;;;;;5002773;28;20504;-93
2023/08/31 11:04:44;;;;;;;;;;;;;;;;;;5011092;28;19925;-93
2023/08/31 11:07:10;;;;;;;;;;;;;;;;;;5008097;28;19919;-94
2023/08/31 11:09:36;;;;;;;;;;;;;;;;;;5008507;28;19917;-93
2023/08/31 11:12:02;;;;;;;;;;;;;;;;;;5006584;28;20413;-94
2023/08/31 11:14:28;;;;;;;;;;;;;;;;;;5005309;28;20226;-93
2023/08/31 11:16:54;;;;;;;;;;;;;;;;;;5002434;28;19910;-94
2023/08/31 11:19:21;;;;;;;;;;;;;;;;;;5009247;28;20004;-94
2023/08/31 11:21:46;;;;;;;;;;;;;;;;;;5017931;28;20004;-93
2023/08/31 11:24:12;;;;;;;;;;;;;;;;;;5006725;28;19913;-93
2023/08/31 11:26:38;;;;;;;;;;;;;;;;;;5004471;28;19906;-93
2023/08/31 11:29:04;;;;;;;;;;;;;;;;;;5005281;28;19909;-93
2023/08/31 11:31:30;;;;;;;;;;;;;;;;;;5007409;28;20008;-94
2023/08/31 11:33:56;;;;;;;;;;;;;;;;;;5003132;28;19910;-93
2023/08/31 11:36:22;;;;;;;;;;;;;;;;;;5005165;28;19936;-92
2023/08/31 11:38:48;;;;;;;;;;;;;;;;;;5003970;28;19916;-93
2023/08/31 11:41:14;;;;;;;;;;;;;;;;;;5006180;28;19914;-93
2023/08/31 11:43:40;;;;;;;;;;;;;;;;;;5004717;28;19913;-93
2023/08/31 11:46:07;;;;;;;;;;;;;;;;;;5003975;28;19917;-96
2023/08/31 11:48:33;;;;;;;;;;;;;;;;;;5002845;28;19909;-95
2023/08/31 11:50:59;;;;;;;;;;;;;;;;;;5002047;28;19936;-95
2023/08/31 11:53:25;;;;;;;;;;;;;;;;;;5005548;28;19914;-94
2023/08/31 11:55:51;;;;;;;;;;;;;;;;;;4999142;28;19916;-95
2023/08/31 11:58:17;;;;;;;;;;;;;;;;;;5002826;28;20467;-95
2023/08/31 12:00:43;;;;;;;;;;;;;;;;;;4996696;28;19917;-95
2023/08/31 12:03:08;;;;;;;;;;;;;;;;;;5002182;28;19917;-96
2023/08/31 12:05:34;;;;;;;;;;;;;;;;;;5006619;28;19921;-92
2023/08/31 12:08:02;;;;;;;;;;;;;;;;;;5000443;28;20365;-93
2023/08/31 12:10:28;;;;;;;;;;;;;;;;;;4999528;28;19920;-91
2023/08/31 12:12:55;;;;;;;;;;;;;;;;;;4999318;28;20019;-93
2023/08/31 12:15:22;;;;;;;;;;;;;;;;;;5007063;28;19921;-93
2023/08/31 12:17:54;;;;;;;;;;;;;;;;;;5003134;28;19913;-93
2023/08/31 12:20:20;;;;;;;;;;;;;;;;;;5000471;28;19917;-90
2023/08/31 12:22:46;;;;;;;;;;;;;;;;;;5002276;28;19928;-91
2023/08/31 12:25:12;;;;;;;;;;;;;;;;;;4999953;28;19909;-93
2023/08/31 12:27:37;;;;;;;;;;;;;;;;;;4994804;28;19966;-92
2023/08/31 12:30:03;;;;;;;;;;;;;;;;;;4993396;28;20345;-92
2023/08/31 12:32:30;;;;;;;;;;;;;;;;;;4996847;28;19921;-91
2023/08/31 12:34:55;;;;;;;;;;;;;;;;;;4990756;28;19910;-92
2023/08/31 12:37:21;;;;;;;;;;;;;;;;;;4991837;28;20272;-92
2023/08/31 12:39:48;;;;;;;;;;;;;;;;;;4991873;28;19924;-92
2023/08/31 12:42:14;;;;;;;;;;;;;;;;;;4991301;28;19921;-92
2023/08/31 12:44:40;;;;;;;;;;;;;;;;;;4995823;28;19917;-91
2023/08/31 12:47:06;;;;;;;;;;;;;;;;;;5001532;28;19976;-91
2023/08/31 12:49:31;;;;;;;;;;;;;;;;;;4996747;28;19910;-92
2023/08/31 12:51:57;;;;;;;;;;;;;;;;;;5000375;28;19917;-93
2023/08/31 12:54:23;;;;;;;;;;;;;;;;;;5000166;28;19909;-94
2023/08/31 12:56:49;;;;;;;;;;;;;;;;;;5002859;28;19909;-94
2023/08/31 12:59:16;;;;;;;;;;;;;;;;;;5003025;28;20163;-93
2023/08/31 13:01:42;;;;;;;;;;;;;;;;;;5002923;28;19922;-93
2023/08/31 13:04:08;;;;;;;;;;;;;;;;;;4988355;28;19927;-92
2023/08/31 13:06:34;;;;;;;;;;;;;;;;;;5003944;28;20369;-94
2023/08/31 13:09:00;;;;;;;;;;;;;;;;;;4983135;28;19928;-95
2023/08/31 13:11:26;;;;;;;;;;;;;;;;;;4983469;28;19925;-94
2023/08/31 13:13:52;;;;;;;;;;;;;;;;;;4988966;28;19924;-94
2023/08/31 13:16:18;;;;;;;;;;;;;;;;;;4986149;28;19916;-94
2023/08/31 13:18:44;;;;;;;;;;;;;;;;;;4999604;28;19917;-93
2023/08/31 13:21:10;;;;;;;;;;;;;;;;;;4999400;28;19976;-95
2023/08/31 13:23:36;;;;;;;;;;;;;;;;;;4978661;28;19917;-94
2023/08/31 13:26:02;;;;;;;;;;;;;;;;;;4980806;28;19910;-93
2023/08/31 13:28:28;;;;;;;;;;;;;;;;;;4980286;28;20664;-93
2023/08/31 13:30:54;;;;;;;;;;;;;;;;;;4995756;28;19920;-93
2023/08/31 13:33:20;;;;;;;;;;;;;;;;;;4992995;28;19916;-93
2023/08/31 13:35:46;;;;;;;;;;;;;;;;;;4973757;28;19917;-93
2023/08/31 13:38:13;;;;;;;;;;;;;;;;;;4995767;28;19937;-93
2023/08/31 13:40:39;;;;;;;;;;;;;;;;;;4987189;28;20904;-94
2023/08/31 13:43:05;;;;;;;;;;;;;;;;;;4993347;28;20538;-93
2023/08/31 13:45:31;;;;;;;;;;;;;;;;;;4972215;28;19913;-94
2023/08/31 13:47:58;;;;;;;;;;;;;;;;;;4978015;28;19963;-93
2023/08/31 13:50:24;;;;;;;;;;;;;;;;;;4980182;28;19948;-94
2023/08/31 13:52:50;;;;;;;;;;;;;;;;;;4978018;28;19940;-94
2023/08/31 13:55:16;;;;;;;;;;;;;;;;;;4988869;28;20039;-94
2023/08/31 13:57:42;;;;;;;;;;;;;;;;;;4989129;28;19917;-93
2023/08/31 14:00:16;;;;;;;;;;;;;;;;;;4984380;28;20399;-93
2023/08/31 14:02:43;;;;;;;;;;;;;;;;;;4997700;28;19924;-93
2023/08/31 14:05:09;;;;;;;;;;;;;;;;;;5002646;28;20431;-93
2023/08/31 14:07:35;;;;;;;;;;;;;;;;;;4989323;28;19916;-93
2023/08/31 14:10:05;;;;;;;;;;;;;;;;;;4994999;28;20315;-94
2023/08/31 14:12:30;;;;;;;;;;;;;;;;;;4999180;28;20308;-93
2023/08/31 14:14:57;;;;;;;;;;;;;;;;;;4998031;28;19924;-94
2023/08/31 14:17:23;;;;;;;;;;;;;;;;;;4993492;28;20256;-93
2023/08/31 14:19:49;;;;;;;;;;;;;;;;;;4993162;28;20324;-93
2023/08/31 14:22:15;;;;;;;;;;;;;;;;;;5003143;28;20015;-93
2023/08/31 14:24:41;;;;;;;;;;;;;;;;;;4997932;28;20122;-94
2023/08/31 14:27:07;;;;;;;;;;;;;;;;;;4996984;28;19976;-94
2023/08/31 14:29:34;;;;;;;;;;;;;;;;;;4994228;28;19913;-93
2023/08/31 14:32:00;;;;;;;;;;;;;;;;;;4993952;28;19920;-93
2023/08/31 14:34:26;;;;;;;;;;;;;;;;;;4993617;28;19913;-94
2023/08/31 14:36:53;;;;;;;;;;;;;;;;;;4995697;28;21109;-94
2023/08/31 14:39:19;;;;;;;;;;;;;;;;;;4984011;28;20413;-95
2023/08/31 14:41:45;;;;;;;;;;;;;;;;;;4992078;28;20423;-94
2023/08/31 14:44:11;;;;;;;;;;;;;;;;;;4990001;28;21000;-94
2023/08/31 14:46:37;;;;;;;;;;;;;;;;;;4992153;28;19917;-94
2023/08/31 14:49:04;;;;;;;;;;;;;;;;;;5003935;28;19924;-95
2023/08/31 14:51:30;;;;;;;;;;;;;;;;;;4988716;28;19924;-93
2023/08/31 14:53:56;;;;;;;;;;;;;;;;;;4988275;28;19917;-94
2023/08/31 14:56:22;;;;;;;;;;;;;;;;;;4990719;28;20020;-94
2023/08/31 14:58:47;;;;;;;;;;;;;;;;;;4993199;28;19922;-93
2023/08/31 15:01:13;;;;;;;;;;;;;;;;;;5000504;28;20019;-94
2023/08/31 15:03:39;;;;;;;;;;;;;;;;;;5005471;28;19944;-94
2023/08/31 15:06:05;;;;;;;;;;;;;;;;;;4999426;28;20477;-95
2023/08/31 15:08:31;;;;;;;;;;;;;;;;;;5003451;28;19944;-95
2023/08/31 15:10:59;;;;;;;;;;;;;;;;;;4998534;28;20743;-94
2023/08/31 15:13:25;;;;;;;;;;;;;;;;;;5001543;28;20376;-94
2023/08/31 15:15:51;;;;;;;;;;;;;;;;;;4996066;28;19916;-95
2023/08/31 15:18:16;;;;;;;;;;;;;;;;;;5001603;28;20641;-93
2023/08/31 15:20:42;;;;;;;;;;;;;;;;;;4997425;28;19909;-93
2023/08/31 15:23:08;;;;;;;;;;;;;;;;;;4996610;28;19952;-94
2023/08/31 15:25:34;;;;;;;;;;;;;;;;;;5003998;28;19921;-93
2023/08/31 15:28:00;;;;;;;;;;;;;;;;;;4999281;28;19916;-93
2023/08/31 15:30:26;;;;;;;;;;;;;;;;;;5004181;28;19942;-93
2023/08/31 15:32:52;;;;;;;;;;;;;;;;;;5007638;28;19913;-93
2023/08/31 15:35:18;;;;;;;;;;;;;;;;;;5003378;28;19952;-92
2023/08/31 15:37:47;;;;;;;;;;;;;;;;;;5000955;28;19909;-94
2023/08/31 15:40:13;;;;;;;;;;;;;;;;;;5019068;28;20345;-94
2023/08/31 15:42:39;;;;;;;;;;;;;;;;;;5003373;28;19913;-94
2023/08/31 15:45:05;;;;;;;;;;;;;;;;;;5004554;28;19981;-94
2023/08/31 15:47:31;;;;;;;;;;;;;;;;;;5010417;28;20324;-94
2023/08/31 15:49:58;;;;;;;;;;;;;;;;;;5005163;28;19924;-93
2023/08/31 15:52:23;;;;;;;;;;;;;;;;;;5003803;28;20558;-93
2023/08/31 15:54:49;;;;;;;;;;;;;;;;;;5002182;28;19925;-94
2023/08/31 15:57:15;;;;;;;;;;;;;;;;;;5005020;28;19936;-93
2023/08/31 15:59:42;;;;;;;;;;;;;;;;;;5003141;28;19913;-94
2023/08/31 16:02:08;;;;;;;;;;;;;;;;;;5006006;28;20292;-94
2023/08/31 16:04:34;;;;;;;;;;;;;;;;;;5002402;28;19917;-94
2023/08/31 16:07:00;;;;;;;;;;;;;;;;;;5001945;28;20404;-94
2023/08/31 16:09:26;;;;;;;;;;;;;;;;;;5007848;28;19921;-95
2023/08/31 16:11:52;;;;;;;;;;;;;;;;;;5006366;28;19950;-93
2023/08/31 16:14:18;;;;;;;;;;;;;;;;;;5008493;28;20348;-94
2023/08/31 16:16:44;;;;;;;;;;;;;;;;;;5007304;28;19913;-94
2023/08/31 16:19:11;;;;;;;;;;;;;;;;;;5000549;28;20451;-94
2023/08/31 16:21:38;;;;;;;;;;;;;;;;;;5005165;28;20324;-93
2023/08/31 16:24:04;;;;;;;;;;;;;;;;;;5006329;28;19917;-93
2023/08/31 16:26:30;;;;;;;;;;;;;;;;;;5006958;28;19910;-94
2023/08/31 16:28:55;;;;;;;;;;;;;;;;;;5005931;28;19918;-95
2023/08/31 16:31:22;;;;;;;;;;;;;;;;;;5010507;28;19909;-95
2023/08/31 16:33:48;;;;;;;;;;;;;;;;;;5006065;28;20517;-93
2023/08/31 16:36:13;;;;;;;;;;;;;;;;;;5003745;28;19959;-95
2023/08/31 16:38:40;;;;;;;;;;;;;;;;;;5005948;28;20030;-95
2023/08/31 16:41:06;;;;;;;;;;;;;;;;;;5002222;28;20416;-94
2023/08/31 16:43:32;;;;;;;;;;;;;;;;;;5003047;28;19925;-94
2023/08/31 16:45:58;;;;;;;;;;;;;;;;;;5004590;28;19913;-92
2023/08/31 16:48:24;;;;;;;;;;;;;;;;;;5005657;28;19937;-93
2023/08/31 16:50:50;;;;;;;;;;;;;;;;;;5005875;28;19921;-93
2023/08/31 16:53:15;;;;;;;;;;;;;;;;;;5019460;28;19933;-93